Cielo Di Agadir — CNA4589 — position and weather

sailwx.info

Track history (hours):
 
Tides and Currents Weather Stations Pressure Air Temp Water Temp Dewpoint Dewpoint Depression Visibility Wind Speed Wind Dir Waves Ship Positions

Cielo Di Agadir

Last reported at 2018-Jul-19 21:56 UTC. Time now 2018-Jul-19 23:17 UTC.
Position N 39°25' W 000°12'.

Length 184 m; draft 8.5 m.

Type: Ship (hazmat cat A). MMSI: 242123100.

Date/timePositionNaut miles runAvg speedWind from/ knotsBaromVisibWave heightAir tempDewpointWater temp
2018-Jul-19 21:56N 39°25' W 000°12'611.1
2018-Jul-19 21:25N 39°26' W 000°19'0 0.2
2018-Jul-19 19:54N 39°26' W 000°19'0 0.0
2018-Jul-19 19:30N 39°26' W 000°19'0 0.0
2018-Jul-19 19:00N 39°26' W 000°19'0 0.0
2018-Jul-19 18:30N 39°26' W 000°19'0 0.0
2018-Jul-19 18:00N 39°26' W 000°19'0 0.0
2018-Jul-19 17:30N 39°26' W 000°19'0 0.0
2018-Jul-19 16:48N 39°26' W 000°19'0 0.0
2018-Jul-19 16:30N 39°26' W 000°19'0 0.0
2018-Jul-19 15:48N 39°26' W 000°19'0 0.0
2018-Jul-19 13:12N 39°26' W 000°19'0 0.0
2018-Jul-19 12:54N 39°26' W 000°19'0 0.0
2018-Jul-19 12:30N 39°26' W 000°19'0 0.0
2018-Jul-19 12:00N 39°26' W 000°19'0 0.0
2018-Jul-19 11:30N 39°26' W 000°19'0 0.0
2018-Jul-19 11:00N 39°26' W 000°19'0 0.0
2018-Jul-19 10:30N 39°26' W 000°19'0 0.0
2018-Jul-19 05:39N 39°26' W 000°19'0 0.0
2018-Jul-19 03:12N 39°26' W 000°19'0 0.0
2018-Jul-19 02:48N 39°26' W 000°19'0 0.0
2018-Jul-19 02:30N 39°26' W 000°19'0 0.0
2018-Jul-19 01:54N 39°26' W 000°19'0 0.0
2018-Jul-19 01:27N 39°26' W 000°19'0 0.2
2018-Jul-19 01:00N 39°26' W 000°19'4 2.5
2018-Jul-18 23:31N 39°23' W 000°16'0 0.2
2018-Jul-18 23:13N 39°23' W 000°15'0 0.0
2018-Jul-18 22:55N 39°23' W 000°16'0 0.0
2018-Jul-18 22:25N 39°23' W 000°15'0 0.0
2018-Jul-18 09:49N 39°23' W 000°15'0 0.0
2018-Jul-18 03:43N 39°23' W 000°15'0 0.0
2018-Jul-18 03:22N 39°23' W 000°15'0 0.0
2018-Jul-18 02:58N 39°23' W 000°15'0 0.0
2018-Jul-17 23:37N 39°23' W 000°15'0 0.0
2018-Jul-17 23:28N 39°23' W 000°15'0 0.0
2018-Jul-17 22:55N 39°23' W 000°15'0 0.0
2018-Jul-17 16:31N 39°23' W 000°16'0 0.0
2018-Jul-17 14:13N 39°23' W 000°16'0 0.0
2018-Jul-17 13:55N 39°23' W 000°15'0 0.0
2018-Jul-17 09:37N 39°23' W 000°15'0 0.1
2018-Jul-17 09:25N 39°23' W 000°16'0 0.0
2018-Jul-17 08:55N 39°23' W 000°15'0 0.0
2018-Jul-17 05:13N 39°23' W 000°15'0 0.0
2018-Jul-16 21:43N 39°23' W 000°15'0 0.0
2018-Jul-15 13:07N 39°23' W 000°15'0 0.1
2018-Jul-15 13:00N 39°23' W 000°15'0 0.0
2018-Jul-14 16:13N 39°23' W 000°15'1 2.1
2018-Jul-14 15:59N 39°24' W 000°15'223 6.9
2018-Jul-13 07:54N 36°46' E 003°04'0 0.0
2018-Jul-13 07:30N 36°46' E 003°04'0 0.0
2018-Jul-13 06:42N 36°46' E 003°04'0 0.0
2018-Jul-13 06:18N 36°46' E 003°04'0 0.0
2018-Jul-13 05:51N 36°46' E 003°04'0 0.0
2018-Jul-13 05:30N 36°46' E 003°04'0 0.0
2018-Jul-13 03:42N 36°46' E 003°04'0 0.0
2018-Jul-13 03:24N 36°46' E 003°04'0 0.0
2018-Jul-13 02:45N 36°46' E 003°04'0 0.0
2018-Jul-13 02:24N 36°46' E 003°04'0 0.0
2018-Jul-13 01:54N 36°46' E 003°04'0 0.0
2018-Jul-12 22:39N 36°46' E 003°04'0 0.0
2018-Jul-12 22:30N 36°46' E 003°04'0 0.0
2018-Jul-12 22:00N 36°46' E 003°04'0 0.0
2018-Jul-12 21:27N 36°46' E 003°04'0 0.0
2018-Jul-12 21:00N 36°46' E 003°04'0 0.0
2018-Jul-12 19:54N 36°46' E 003°04'0 0.0
2018-Jul-12 19:24N 36°46' E 003°04'0 0.0
2018-Jul-12 19:00N 36°46' E 003°04'0 0.0
2018-Jul-12 17:42N 36°46' E 003°04'0 0.0
2018-Jul-12 17:27N 36°46' E 003°04'0 0.0
2018-Jul-12 17:00N 36°46' E 003°04'0 0.0
2018-Jul-12 15:18N 36°46' E 003°04'0 0.0
2018-Jul-12 15:00N 36°46' E 003°04'20 1.0
2018-Jul-11 19:45N 36°57' E 003°24'414.8
2018-Jul-11 19:29N 36°59' E 003°29'814.8
2018-Jul-11 18:56N 37°02' E 003°38'7514.7
2018-Jul-11 13:52N 37°13' E 005°11'714.7
2018-Jul-11 13:25N 37°14' E 005°19'614.8
2018-Jul-11 13:00N 37°14' E 005°26'815.0
2018-Jul-11 12:30N 37°15' E 005°36'915.1
2018-Jul-11 11:54N 37°16' E 005°47'34113.3
2018-Jul-10 10:11N 36°35' E 012°51'613.8
2018-Jul-10 09:45N 36°32' E 012°57'413.7
2018-Jul-10 09:28N 36°30' E 013°01'713.5
2018-Jul-10 08:55N 36°26' E 013°09'  
Track history (hours):
 
Tides and Currents Weather Stations Pressure Air Temp Water Temp Dewpoint Dewpoint Depression Visibility Wind Speed Wind Dir Waves Ship Positions

Cielo Di Agadir

Last reported at 2018-Jul-19 21:56 UTC. Time now 2018-Jul-19 23:17 UTC.
Position N 39°25' W 000°12'.

Length 184 m; draft 8.5 m.

Type: Ship (hazmat cat A). MMSI: 242123100.

Date/timePositionNaut miles runAvg speedWind from/ knotsBaromVisibWave heightAir tempDewpointWater temp
2018-Jul-19 21:56N 39°25' W 000°12'611.1
2018-Jul-19 21:25N 39°26' W 000°19'0 0.2
2018-Jul-19 19:54N 39°26' W 000°19'0 0.0
2018-Jul-19 19:30N 39°26' W 000°19'0 0.0
2018-Jul-19 19:00N 39°26' W 000°19'0 0.0
2018-Jul-19 18:30N 39°26' W 000°19'0 0.0
2018-Jul-19 18:00N 39°26' W 000°19'0 0.0
2018-Jul-19 17:30N 39°26' W 000°19'0 0.0
2018-Jul-19 16:48N 39°26' W 000°19'0 0.0
2018-Jul-19 16:30N 39°26' W 000°19'0 0.0
2018-Jul-19 15:48N 39°26' W 000°19'0 0.0
2018-Jul-19 13:12N 39°26' W 000°19'0 0.0
2018-Jul-19 12:54N 39°26' W 000°19'0 0.0
2018-Jul-19 12:30N 39°26' W 000°19'0 0.0
2018-Jul-19 12:00N 39°26' W 000°19'0 0.0
2018-Jul-19 11:30N 39°26' W 000°19'0 0.0
2018-Jul-19 11:00N 39°26' W 000°19'0 0.0
2018-Jul-19 10:30N 39°26' W 000°19'0 0.0
2018-Jul-19 05:39N 39°26' W 000°19'0 0.0
2018-Jul-19 03:12N 39°26' W 000°19'0 0.0
2018-Jul-19 02:48N 39°26' W 000°19'0 0.0
2018-Jul-19 02:30N 39°26' W 000°19'0 0.0
2018-Jul-19 01:54N 39°26' W 000°19'0 0.0
2018-Jul-19 01:27N 39°26' W 000°19'0 0.2
2018-Jul-19 01:00N 39°26' W 000°19'4 2.5
2018-Jul-18 23:31N 39°23' W 000°16'0 0.2
2018-Jul-18 23:13N 39°23' W 000°15'0 0.0
2018-Jul-18 22:55N 39°23' W 000°16'0 0.0
2018-Jul-18 22:25N 39°23' W 000°15'0 0.0
2018-Jul-18 09:49N 39°23' W 000°15'0 0.0
2018-Jul-18 03:43N 39°23' W 000°15'0 0.0
2018-Jul-18 03:22N 39°23' W 000°15'0 0.0
2018-Jul-18 02:58N 39°23' W 000°15'0 0.0
2018-Jul-17 23:37N 39°23' W 000°15'0 0.0
2018-Jul-17 23:28N 39°23' W 000°15'0 0.0
2018-Jul-17 22:55N 39°23' W 000°15'0 0.0
2018-Jul-17 16:31N 39°23' W 000°16'0 0.0
2018-Jul-17 14:13N 39°23' W 000°16'0 0.0
2018-Jul-17 13:55N 39°23' W 000°15'0 0.0
2018-Jul-17 09:37N 39°23' W 000°15'0 0.1
2018-Jul-17 09:25N 39°23' W 000°16'0 0.0
2018-Jul-17 08:55N 39°23' W 000°15'0 0.0
2018-Jul-17 05:13N 39°23' W 000°15'0 0.0
2018-Jul-16 21:43N 39°23' W 000°15'0 0.0
2018-Jul-15 13:07N 39°23' W 000°15'0 0.1
2018-Jul-15 13:00N 39°23' W 000°15'0 0.0
2018-Jul-14 16:13N 39°23' W 000°15'1 2.1
2018-Jul-14 15:59N 39°24' W 000°15'223 6.9
2018-Jul-13 07:54N 36°46' E 003°04'0 0.0
2018-Jul-13 07:30N 36°46' E 003°04'0 0.0
2018-Jul-13 06:42N 36°46' E 003°04'0 0.0
2018-Jul-13 06:18N 36°46' E 003°04'0 0.0
2018-Jul-13 05:51N 36°46' E 003°04'0 0.0
2018-Jul-13 05:30N 36°46' E 003°04'0 0.0
2018-Jul-13 03:42N 36°46' E 003°04'0 0.0
2018-Jul-13 03:24N 36°46' E 003°04'0 0.0
2018-Jul-13 02:45N 36°46' E 003°04'0 0.0
2018-Jul-13 02:24N 36°46' E 003°04'0 0.0
2018-Jul-13 01:54N 36°46' E 003°04'0 0.0
2018-Jul-12 22:39N 36°46' E 003°04'0 0.0
2018-Jul-12 22:30N 36°46' E 003°04'0 0.0
2018-Jul-12 22:00N 36°46' E 003°04'0 0.0
2018-Jul-12 21:27N 36°46' E 003°04'0 0.0
2018-Jul-12 21:00N 36°46' E 003°04'0 0.0
2018-Jul-12 19:54N 36°46' E 003°04'0 0.0
2018-Jul-12 19:24N 36°46' E 003°04'0 0.0
2018-Jul-12 19:00N 36°46' E 003°04'0 0.0
2018-Jul-12 17:42N 36°46' E 003°04'0 0.0
2018-Jul-12 17:27N 36°46' E 003°04'0 0.0
2018-Jul-12 17:00N 36°46' E 003°04'0 0.0
2018-Jul-12 15:18N 36°46' E 003°04'0 0.0
2018-Jul-12 15:00N 36°46' E 003°04'20 1.0
2018-Jul-11 19:45N 36°57' E 003°24'414.8
2018-Jul-11 19:29N 36°59' E 003°29'814.8
2018-Jul-11 18:56N 37°02' E 003°38'7514.7
2018-Jul-11 13:52N 37°13' E 005°11'714.7
2018-Jul-11 13:25N 37°14' E 005°19'614.8
2018-Jul-11 13:00N 37°14' E 005°26'815.0
2018-Jul-11 12:30N 37°15' E 005°36'915.1
2018-Jul-11 11:54N 37°16' E 005°47'34113.3
2018-Jul-10 10:11N 36°35' E 012°51'613.8
2018-Jul-10 09:45N 36°32' E 012°57'413.7
2018-Jul-10 09:28N 36°30' E 013°01'713.5
2018-Jul-10 08:55N 36°26' E 013°09'  

Dump ship's entire track history